Andrews, NC

7:45 AM EDT on August 28, 2014 (GMT -0400)
Calaboose Cellars | Change Station
CLOSE
Current Station
Personal Weather Station
Location: Andrews, NC
Elevation: 1800 ft
Nearby Weather Stations

Elev 1800 ft 35.20 °N, 83.81 °W | Updated 45 minutes ago

Fog
Fog
58.8 °F
Feels Like 58.8 °F
N
0.0
Wind Variable Wind from North
Gusts 0.0 mph

Today
High -- | Low -- °F
--% Chance of Precip.
Yesterday
High -- | Low -- °F
Precip. -- in
7:04 AM 8:07 PM
Waxing Crescent, 8% visible
Pressure 30.12 in
Visibility 0.2 miles
Clouds Overcast 200 ft
Dew Point 52 °F
Humidity 79%
Rainfall 0.00 in
Snow Depth Not available.
UV 0 out of 12
Pollen 9.60 out of 12
Air Quality Not available.
Flu Activity Not available.
METAR KRHP 281135Z AUTO 00000KT M1/4SM FG OVC002 14/14 A3012 RMK AO2 T01430143

More Conditions Fewer Conditions

Pressure 30.12 in
Visibility 0.2 miles
Clouds Overcast 200 ft
Dew Point 52 °F
Humidity 79%
Rainfall 0.00 in
Snow Depth Not available.
UV 0 out of 12
Pollen 9.60 out of 12
Air Quality Not available.
Flu Activity Not available.
METAR KRHP 281135Z AUTO 00000KT M1/4SM FG OVC002 14/14 A3012 RMK AO2 T01430143

More Conditions Fewer Conditions

10-Day Weather Forecast

Almanac

Astronomy

Aug. 28, 2014 Rise Set
Actual Time 7:04 AM EDT 8:07 PM EDT
Civil Twilight 6:38 AM EDT 8:33 PM EDT
Nautical Twilight 6:07 AM EDT 9:04 PM EDT
Astronomical Twilight 5:35 AM EDT 9:36 PM EDT
Moon 9:48 AM EDT 9:39 PM EDT
Length of Visible Light 13h 54m
Length of Day
13h 02m
Tomorrow will be 2m 6s shorter.
Waxing Crescent, 8% of the Moon is Illuminated
Today
Waxing Crescent
Sep 2
First Quarter
Sep 8
Full
Sep 15
Last Quarter
Sep 24
New

Today's Extremes

State Highs State Lows

Community

WunderPhotos

Upload Photos

1,747,929 photos uploaded!

Nearby

Snow Depth

Station Depth Elevation
No new snow has been reported.

Earthquake Activity

City Distance Mag. Time & Date
No recent earthquake activity has been reported nearby.
Minimum magnitude displayed is 2.5.

Coastal Water Temperatures

Place Temperature
No Stations Reporting

Nearby Weather Stations